createdAt,value
2018-12-13T00:00:55.132Z,9.63
2018-12-13T00:03:27.865Z,11.50
2018-12-13T00:06:00.608Z,10.53
2018-12-13T00:08:31.341Z,12.40
2018-12-13T00:11:01.991Z,10.93
2018-12-13T00:13:32.697Z,14.47
2018-12-13T00:16:03.440Z,16.57
2018-12-13T00:18:34.121Z,18.07
2018-12-13T00:21:04.901Z,19.70
2018-12-13T00:23:35.602Z,34.07
2018-12-13T00:26:06.402Z,16.97
2018-12-13T00:28:37.082Z,17.73
2018-12-13T00:31:07.811Z,16.20
2018-12-13T00:33:38.568Z,14.23
2018-12-13T00:36:09.363Z,16.00
2018-12-13T00:38:39.983Z,15.07
2018-12-13T00:41:12.434Z,14.47
2018-12-13T00:43:43.159Z,16.73
2018-12-13T00:46:13.813Z,13.73
2018-12-13T00:48:44.565Z,14.00
2018-12-13T00:51:15.132Z,17.87
2018-12-13T00:53:45.884Z,19.97
2018-12-13T00:56:16.563Z,21.90
2018-12-13T00:58:47.244Z,15.00
2018-12-13T01:01:17.885Z,17.03
2018-12-13T01:03:48.439Z,18.73
2018-12-13T01:06:19.101Z,18.57
2018-12-13T01:08:49.865Z,17.40
2018-12-13T01:11:20.626Z,21.80
2018-12-13T01:13:51.360Z,18.53
2018-12-13T01:16:25.217Z,20.47
2018-12-13T01:18:56.063Z,18.73
2018-12-13T01:21:27.953Z,28.77
2018-12-13T01:23:58.595Z,20.70
2018-12-13T01:26:29.339Z,16.10
2018-12-13T01:29:01.338Z,20.23
2018-12-13T01:31:32.060Z,27.40
2018-12-13T01:34:02.793Z,21.23
2018-12-13T01:36:33.521Z,24.13
2018-12-13T01:39:04.944Z,21.97
2018-12-13T01:41:37.140Z,20.20
2018-12-13T01:44:07.843Z,22.93
2018-12-13T01:46:39.569Z,25.70
2018-12-13T01:49:10.207Z,25.20
2018-12-13T01:51:40.880Z,23.40
2018-12-13T01:54:11.602Z,19.40
2018-12-13T01:56:42.319Z,22.90
2018-12-13T01:59:13.053Z,22.13
2018-12-13T02:01:43.854Z,22.30
2018-12-13T02:04:15.000Z,22.83
2018-12-13T02:06:45.730Z,26.83
2018-12-13T02:09:16.426Z,25.67
2018-12-13T02:11:47.094Z,24.13
2018-12-13T02:14:17.803Z,21.43
2018-12-13T02:16:49.061Z,22.27
2018-12-13T02:19:19.683Z,22.93
2018-12-13T02:21:51.365Z,23.37
2018-12-13T02:24:22.113Z,16.70
2018-12-13T02:26:52.932Z,22.67
2018-12-13T02:29:23.688Z,22.60
2018-12-13T02:31:54.342Z,17.80
2018-12-13T02:34:25.058Z,16.50
2018-12-13T02:36:55.829Z,14.00
2018-12-13T02:39:26.533Z,16.67
2018-12-13T02:41:57.573Z,17.60
2018-12-13T02:44:28.311Z,13.57
2018-12-13T02:46:58.944Z,11.13
2018-12-13T02:49:29.607Z,10.93
2018-12-13T02:52:00.672Z,10.07
2018-12-13T02:54:31.400Z,10.73
2018-12-13T02:57:02.009Z,10.63
2018-12-13T02:59:32.807Z,9.90
2018-12-13T03:02:03.834Z,11.53
2018-12-13T03:04:34.519Z,12.53
2018-12-13T03:07:05.312Z,8.80
2018-12-13T03:09:35.894Z,10.97
2018-12-13T03:12:06.608Z,9.07
2018-12-13T03:14:38.252Z,11.27
2018-12-13T03:17:09.255Z,11.83
2018-12-13T03:19:39.926Z,9.40
2018-12-13T03:22:10.744Z,9.03
2018-12-13T03:24:41.447Z,9.23
2018-12-13T03:27:12.157Z,15.20
2018-12-13T03:29:42.815Z,11.47
2018-12-13T03:32:13.527Z,10.07
2018-12-13T03:34:44.191Z,11.13
2018-12-13T03:37:20.861Z,11.30
2018-12-13T03:39:52.523Z,10.10
2018-12-13T03:42:28.434Z,11.20
2018-12-13T03:45:01.117Z,16.07
2018-12-13T03:47:34.535Z,11.43
2018-12-13T03:50:05.815Z,11.53
2018-12-13T03:52:36.557Z,10.57
2018-12-13T03:55:07.218Z,10.10
2018-12-13T03:57:37.941Z,15.90
2018-12-13T04:00:08.693Z,12.67
2018-12-13T04:02:41.026Z,18.33
2018-12-13T04:05:11.648Z,18.57
2018-12-13T04:07:42.312Z,19.37
2018-12-13T04:10:14.934Z,14.37
2018-12-13T04:12:45.566Z,13.80
2018-12-13T04:15:16.208Z,11.90
2018-12-13T04:17:46.814Z,14.20
2018-12-13T04:20:19.608Z,10.43
2018-12-13T04:22:52.339Z,14.70
2018-12-13T04:25:23.108Z,16.70
2018-12-13T04:27:54.673Z,15.73
2018-12-13T04:30:25.357Z,15.70
2018-12-13T04:32:56.150Z,16.53
2018-12-13T04:35:26.773Z,15.43
2018-12-13T04:37:57.432Z,16.77
2018-12-13T04:40:30.691Z,16.27
2018-12-13T04:43:01.473Z,14.87
2018-12-13T04:45:32.137Z,14.93
2018-12-13T04:48:03.800Z,13.90
2018-12-13T04:50:34.551Z,15.63
2018-12-13T04:53:05.176Z,14.33
2018-12-13T04:55:36.706Z,12.00
2018-12-13T04:58:07.480Z,13.40
2018-12-13T05:00:38.172Z,16.33
2018-12-13T05:03:08.819Z,18.43
2018-12-13T05:05:40.263Z,11.70
2018-12-13T05:08:10.920Z,14.17
2018-12-13T05:10:51.918Z,17.70
2018-12-13T05:13:23.171Z,20.90
2018-12-13T05:15:53.959Z,23.30
2018-12-13T05:18:24.608Z,21.33
2018-12-13T05:20:55.324Z,20.20
2018-12-13T05:23:26.704Z,21.03
2018-12-13T05:25:57.355Z,20.57
2018-12-13T05:28:28.806Z,16.90
2018-12-13T05:30:59.643Z,18.53
2018-12-13T05:33:30.376Z,15.60
2018-12-13T05:36:01.054Z,16.83
2018-12-13T05:38:31.729Z,15.83
2018-12-13T05:41:02.416Z,14.03
2018-12-13T05:43:33.835Z,13.93
2018-12-13T05:46:04.508Z,16.33
2018-12-13T05:48:35.797Z,26.73
2018-12-13T05:51:06.586Z,36.93
2018-12-13T05:53:37.216Z,26.87
2018-12-13T05:56:08.063Z,16.83
2018-12-13T05:58:38.748Z,20.10
2018-12-13T06:01:09.415Z,17.57
2018-12-13T06:03:43.760Z,19.93
2018-12-13T06:06:14.508Z,19.83
2018-12-13T06:08:45.239Z,15.80
2018-12-13T06:11:16.444Z,14.10
2018-12-13T06:13:47.096Z,14.67
2018-12-13T06:16:17.789Z,16.73
2018-12-13T06:18:48.414Z,16.47
2018-12-13T06:21:19.172Z,12.83
2018-12-13T06:23:51.169Z,12.57
2018-12-13T06:26:21.887Z,14.53
2018-12-13T06:28:53.388Z,18.10
2018-12-13T06:31:24.116Z,19.90
2018-12-13T06:33:54.859Z,15.67
2018-12-13T06:36:25.556Z,17.60
2018-12-13T06:38:56.231Z,12.50
2018-12-13T06:41:26.931Z,12.67
2018-12-13T06:43:58.682Z,13.10
2018-12-13T06:46:29.310Z,15.67
2018-12-13T06:49:00.013Z,14.27
2018-12-13T06:51:30.715Z,16.73
2018-12-13T06:54:01.345Z,19.20
2018-12-13T06:56:32.054Z,17.20
2018-12-13T06:59:02.761Z,11.73
2018-12-13T07:01:33.439Z,15.23
2018-12-13T07:04:05.750Z,14.13
2018-12-13T07:06:36.501Z,11.53
2018-12-13T07:09:08.085Z,11.63
2018-12-13T07:11:40.395Z,12.40
2018-12-13T07:14:11.087Z,15.17
2018-12-13T07:16:42.235Z,14.57
2018-12-13T07:19:13.097Z,14.03
2018-12-13T07:21:43.710Z,12.23
2018-12-13T07:24:14.499Z,15.50
2018-12-13T07:26:45.856Z,11.33
2018-12-13T07:29:16.566Z,16.07
2018-12-13T07:31:47.366Z,16.03
2018-12-13T07:34:18.015Z,16.30
2018-12-13T07:36:48.668Z,13.03
2018-12-13T07:39:19.285Z,13.50
2018-12-13T07:41:49.918Z,12.57
2018-12-13T07:44:20.940Z,14.30
2018-12-13T07:46:51.667Z,15.50
2018-12-13T07:49:22.438Z,12.90
2018-12-13T07:51:53.171Z,12.37
2018-12-13T07:54:23.860Z,11.53
2018-12-13T07:56:54.555Z,11.40
2018-12-13T07:59:25.403Z,9.23
2018-12-13T08:01:56.175Z,12.00
2018-12-13T08:04:27.029Z,8.03
2018-12-13T08:06:57.673Z,12.40
2018-12-13T08:09:28.374Z,11.97
2018-12-13T08:11:59.091Z,9.83
2018-12-13T08:14:29.857Z,13.53
2018-12-13T08:17:00.446Z,8.27
2018-12-13T08:19:33.202Z,8.50
2018-12-13T08:22:03.969Z,10.30
2018-12-13T08:24:34.891Z,12.17
2018-12-13T08:27:07.493Z,9.40
2018-12-13T08:29:38.146Z,9.80
2018-12-13T08:32:08.764Z,15.17
2018-12-13T08:34:39.408Z,13.37
2018-12-13T08:37:11.180Z,8.40
2018-12-13T08:39:41.835Z,10.03
2018-12-13T08:42:12.504Z,10.43
2018-12-13T08:44:43.334Z,11.73
2018-12-13T08:47:14.010Z,9.60
2018-12-13T08:49:44.752Z,9.47
2018-12-13T08:52:15.366Z,15.00
2018-12-13T08:54:46.082Z,9.10
2018-12-13T08:57:16.754Z,11.00
2018-12-13T08:59:47.431Z,6.97
2018-12-13T09:02:18.136Z,11.47
2018-12-13T09:04:49.286Z,13.93
2018-12-13T09:07:20.171Z,12.97
2018-12-13T09:09:50.731Z,8.30
2018-12-13T09:12:22.439Z,12.37
2018-12-13T09:14:53.127Z,18.10
2018-12-13T09:17:23.748Z,10.83
2018-12-13T09:19:54.322Z,8.70
2018-12-13T09:22:25.080Z,6.37
2018-12-13T09:24:56.747Z,18.87
2018-12-13T09:27:27.424Z,15.07
2018-12-13T09:29:59.916Z,10.83
2018-12-13T09:32:30.601Z,46.67
2018-12-13T09:35:01.246Z,8.40
2018-12-13T09:37:31.919Z,5.50
2018-12-13T09:40:02.508Z,12.83
2018-12-13T09:42:33.223Z,6.70
2018-12-13T09:45:04.238Z,10.97
2018-12-13T09:47:35.428Z,9.67
2018-12-13T09:50:06.785Z,10.17
2018-12-13T09:52:37.468Z,17.87
2018-12-13T09:55:08.087Z,11.93
2018-12-13T09:57:38.759Z,12.47
2018-12-13T10:00:11.003Z,7.77
2018-12-13T10:02:41.676Z,8.03
2018-12-13T10:05:12.603Z,6.47
2018-12-13T10:07:43.378Z,5.87
2018-12-13T10:10:14.119Z,12.53
2018-12-13T10:12:45.282Z,10.53
2018-12-13T10:15:16.004Z,6.73
2018-12-13T10:17:46.741Z,8.13
2018-12-13T10:20:17.496Z,11.23
2018-12-13T10:22:48.134Z,9.63
2018-12-13T10:25:18.979Z,6.87
2018-12-13T10:27:49.748Z,7.00
2018-12-13T10:30:20.509Z,7.97
2018-12-13T10:32:55.045Z,11.33
2018-12-13T10:35:25.723Z,10.03
2018-12-13T10:37:56.376Z,8.90
2018-12-13T10:40:26.963Z,6.07
2018-12-13T10:42:57.528Z,15.57
2018-12-13T10:45:28.209Z,11.27
2018-12-13T10:47:58.839Z,10.83
2018-12-13T10:50:29.353Z,8.90
2018-12-13T10:52:59.984Z,9.00
2018-12-13T10:58:16.312Z,9.97
2018-12-13T11:00:51.614Z,6.90
2018-12-13T11:03:28.975Z,7.43
2018-12-13T11:06:00.500Z,8.20
2018-12-13T11:08:31.123Z,7.17
2018-12-13T11:11:01.847Z,5.70
2018-12-13T11:13:32.538Z,8.97
2018-12-13T11:16:03.225Z,7.70
2018-12-13T11:18:33.912Z,6.87
2018-12-13T11:21:05.607Z,5.77
2018-12-13T11:23:36.252Z,4.03
2018-12-13T11:26:06.970Z,7.83
2018-12-13T11:29:47.959Z,9.23
2018-12-13T11:32:24.246Z,5.00
2018-12-13T11:34:54.915Z,6.07
2018-12-13T11:37:26.353Z,10.40
2018-12-13T11:39:57.920Z,11.47
2018-12-13T11:42:28.704Z,6.60
2018-12-13T11:45:03.178Z,15.27
2018-12-13T11:47:34.524Z,10.50
2018-12-13T11:50:06.587Z,11.20
2018-12-13T11:52:37.368Z,12.70
2018-12-13T11:55:17.363Z,8.23
2018-12-13T11:57:48.141Z,6.67
2018-12-13T12:00:20.167Z,7.13
2018-12-13T12:02:50.804Z,5.80
2018-12-13T12:05:21.801Z,8.60
2018-12-13T12:07:54.424Z,6.40
2018-12-13T12:10:26.295Z,7.27
2018-12-13T12:12:57.208Z,8.20
2018-12-13T12:15:27.888Z,7.50
2018-12-13T12:17:59.116Z,7.00
2018-12-13T12:20:30.397Z,5.30
2018-12-13T12:23:03.547Z,4.17
2018-12-13T12:25:39.745Z,6.27
2018-12-13T12:28:11.377Z,5.03
2018-12-13T12:30:42.030Z,6.73
2018-12-13T12:33:18.747Z,5.83
2018-12-13T12:35:49.454Z,7.40
2018-12-13T12:38:21.042Z,5.60
2018-12-13T12:40:51.763Z,4.50
2018-12-13T12:43:22.458Z,4.10
2018-12-13T12:45:53.158Z,3.33
2018-12-13T12:48:25.067Z,5.70
2018-12-13T12:50:55.667Z,7.07
2018-12-13T12:53:26.345Z,8.57
2018-12-13T12:55:56.961Z,18.93
2018-12-13T12:58:28.124Z,6.60
2018-12-13T13:00:58.832Z,3.83
2018-12-13T13:03:29.454Z,5.13
2018-12-13T13:06:00.187Z,4.93
2018-12-13T13:08:30.870Z,5.73
2018-12-13T13:11:01.513Z,5.30
2018-12-13T13:13:32.152Z,4.50
2018-12-13T13:16:02.879Z,5.70
2018-12-13T13:18:39.023Z,3.37
2018-12-13T13:21:06.726Z,3.57
2018-12-13T13:23:39.205Z,42.43
2018-12-13T13:26:09.960Z,21.40
2018-12-13T13:28:40.622Z,8.37
2018-12-13T13:31:12.884Z,20.67
2018-12-13T13:33:43.595Z,7.30
2018-12-13T13:36:14.275Z,16.17
2018-12-13T13:38:45.277Z,21.20
2018-12-13T13:41:15.926Z,8.37
2018-12-13T13:43:46.642Z,7.00
2018-12-13T13:46:17.308Z,5.90
2018-12-13T13:48:48.005Z,6.50
2018-12-13T13:51:18.701Z,6.57
2018-12-13T13:53:49.342Z,8.30
2018-12-13T13:56:20.003Z,7.70
2018-12-13T13:58:51.271Z,33.93
2018-12-13T14:04:13.859Z,21.23
2018-12-13T14:06:46.374Z,18.73
2018-12-13T14:09:17.170Z,27.97
2018-12-13T14:11:47.741Z,29.10
2018-12-13T14:14:18.382Z,34.93
2018-12-13T14:16:48.966Z,25.60
2018-12-13T14:19:20.654Z,39.57
2018-12-13T14:21:51.423Z,104.30
2018-12-13T14:24:22.074Z,28.57
2018-12-13T14:26:52.752Z,24.07
2018-12-13T14:29:23.430Z,22.33
2018-12-13T14:31:54.096Z,20.07
2018-12-13T14:34:25.766Z,13.97
2018-12-13T14:36:56.447Z,17.97
2018-12-13T14:39:27.124Z,17.23
2018-12-13T14:41:59.977Z,29.60
2018-12-13T14:44:34.143Z,23.83
2018-12-13T14:47:04.735Z,27.97
2018-12-13T14:49:35.418Z,29.53
2018-12-13T14:52:06.023Z,32.33
2018-12-13T14:54:36.593Z,39.47
2018-12-13T14:57:07.627Z,51.20
2018-12-13T14:59:38.271Z,43.03
2018-12-13T15:02:09.263Z,43.97
2018-12-13T15:04:39.970Z,39.13
2018-12-13T15:07:10.633Z,34.30
2018-12-13T15:09:41.274Z,61.00
2018-12-13T15:12:11.917Z,63.03
2018-12-13T15:14:42.630Z,69.73
2018-12-13T15:17:13.283Z,18.27
2018-12-13T15:19:43.903Z,18.10
2018-12-13T15:22:14.911Z,21.87
2018-12-13T15:24:45.684Z,22.33
2018-12-13T15:27:16.300Z,16.20
2018-12-13T15:29:46.949Z,15.13
2018-12-13T15:32:17.635Z,12.83
2018-12-13T15:34:48.564Z,7.63
2018-12-13T15:37:19.439Z,14.33
2018-12-13T15:39:50.055Z,16.80
2018-12-13T15:42:21.841Z,11.50
2018-12-13T15:44:52.499Z,10.23
2018-12-13T15:47:23.865Z,11.20
2018-12-13T15:49:54.684Z,6.60
2018-12-13T15:52:25.366Z,21.63
2018-12-13T15:54:56.035Z,38.57
2018-12-13T15:57:26.734Z,26.47
2018-12-13T15:59:57.319Z,15.37
2018-12-13T16:02:31.753Z,22.67
2018-12-13T16:05:02.440Z,22.03
2018-12-13T16:07:33.236Z,24.77
2018-12-13T16:10:04.273Z,14.63
2018-12-13T16:12:35.196Z,11.67
2018-12-13T16:15:08.682Z,16.97
2018-12-13T16:17:39.446Z,19.73
2018-12-13T16:20:10.296Z,15.70
2018-12-13T16:22:41.075Z,21.07
2018-12-13T16:25:11.797Z,14.17
2018-12-13T16:27:42.564Z,17.97
2018-12-13T16:30:14.389Z,15.97
2018-12-13T16:32:45.388Z,17.80
2018-12-13T16:35:16.005Z,19.07
2018-12-13T16:37:46.625Z,16.57
2018-12-13T16:40:17.371Z,20.10
2018-12-13T16:42:48.125Z,12.27
2018-12-13T16:45:18.928Z,19.40
2018-12-13T16:47:49.997Z,24.77
2018-12-13T16:50:23.148Z,15.00
2018-12-13T16:52:54.901Z,10.13
2018-12-13T16:55:25.525Z,9.50
2018-12-13T16:57:56.186Z,18.43
2018-12-13T17:00:27.008Z,35.73
2018-12-13T17:02:57.717Z,26.20
2018-12-13T17:05:28.331Z,13.13
2018-12-13T17:07:59.230Z,20.03
2018-12-13T17:10:30.872Z,23.33
2018-12-13T17:13:01.499Z,23.27
2018-12-13T17:15:32.088Z,44.27
2018-12-13T17:18:02.831Z,41.73
2018-12-13T17:20:34.271Z,39.50
2018-12-13T17:23:05.162Z,41.70
2018-12-13T17:25:35.808Z,56.03
2018-12-13T17:28:06.559Z,47.60
2018-12-13T17:30:37.116Z,57.80
2018-12-13T17:33:07.781Z,63.67
2018-12-13T17:35:38.417Z,71.80
2018-12-13T17:38:09.246Z,52.67
2018-12-13T17:40:39.879Z,63.40
2018-12-13T17:43:10.715Z,48.90
2018-12-13T17:45:41.459Z,30.33
2018-12-13T17:48:12.139Z,17.80
2018-12-13T17:50:42.778Z,34.67
2018-12-13T17:53:13.518Z,49.43
2018-12-13T17:55:44.156Z,52.17
2018-12-13T17:58:14.826Z,47.70
2018-12-13T18:00:45.501Z,39.40
2018-12-13T18:03:16.309Z,48.60
2018-12-13T18:05:46.990Z,43.67
2018-12-13T18:08:18.153Z,32.20
2018-12-13T18:10:48.853Z,30.20
2018-12-13T18:13:19.532Z,35.90
2018-12-13T18:15:50.285Z,39.80
2018-12-13T18:18:21.218Z,41.53
2018-12-13T18:20:53.749Z,33.07
2018-12-13T18:23:24.574Z,43.90
2018-12-13T18:25:55.202Z,45.00
2018-12-13T18:28:26.253Z,45.90
2018-12-13T18:30:56.902Z,43.67
2018-12-13T18:33:27.545Z,30.50
2018-12-13T18:35:58.858Z,29.00
2018-12-13T18:38:29.792Z,26.13
2018-12-13T18:41:00.473Z,25.40
2018-12-13T18:43:31.192Z,23.07
2018-12-13T18:46:02.263Z,31.17
2018-12-13T18:48:32.906Z,36.83
2018-12-13T18:51:03.875Z,36.37
2018-12-13T18:53:34.586Z,33.60
2018-12-13T18:56:06.611Z,45.63
2018-12-13T18:58:37.352Z,30.13
2018-12-13T19:01:08.703Z,26.23
2018-12-13T19:03:40.035Z,25.67
2018-12-13T19:06:10.946Z,24.67
2018-12-13T19:08:41.582Z,26.30
2018-12-13T19:11:13.133Z,22.40
2018-12-13T19:13:43.925Z,25.93
2018-12-13T19:16:14.706Z,41.13
2018-12-13T19:18:46.716Z,37.20
2018-12-13T19:21:17.941Z,36.73
2018-12-13T19:23:50.123Z,52.47
2018-12-13T19:26:21.693Z,108.03
2018-12-13T19:28:53.538Z,73.27
2018-12-13T19:31:30.081Z,47.27
2018-12-13T19:34:00.817Z,39.40
2018-12-13T19:36:32.057Z,36.00
2018-12-13T19:39:06.031Z,32.87
2018-12-13T19:41:38.226Z,25.43
2018-12-13T19:44:10.089Z,23.47
2018-12-13T19:46:40.743Z,23.20
2018-12-13T19:49:11.428Z,23.27
2018-12-13T19:51:42.206Z,30.57
2018-12-13T19:54:13.015Z,50.07
2018-12-13T19:56:43.692Z,63.03
2018-12-13T19:59:14.462Z,46.53
2018-12-13T20:01:45.721Z,33.40
2018-12-13T20:04:16.430Z,23.97
2018-12-13T20:06:48.977Z,27.07
2018-12-13T20:09:19.602Z,33.57
2018-12-13T20:11:51.955Z,28.07
2018-12-13T20:14:23.554Z,26.10
2018-12-13T20:16:54.340Z,25.73
2018-12-13T20:19:24.900Z,20.87
2018-12-13T20:21:56.923Z,24.83
2018-12-13T20:24:27.725Z,29.20
2018-12-13T20:26:58.444Z,21.03
2018-12-13T20:29:29.422Z,20.70
2018-12-13T20:32:00.149Z,26.33
2018-12-13T20:34:30.879Z,20.20
2018-12-13T20:37:02.427Z,22.33
2018-12-13T20:39:34.997Z,17.90
2018-12-13T20:42:05.676Z,34.07
2018-12-13T20:44:37.697Z,27.93
2018-12-13T20:47:08.800Z,24.13
2018-12-13T20:49:39.437Z,29.67
2018-12-13T20:52:10.233Z,33.63
2018-12-13T20:54:40.885Z,21.40
2018-12-13T20:57:11.509Z,19.07
2018-12-13T20:59:42.149Z,27.03
2018-12-13T21:02:12.820Z,35.83
2018-12-13T21:04:43.927Z,43.97
2018-12-13T21:07:19.559Z,57.17
2018-12-13T21:09:50.310Z,30.67
2018-12-13T21:12:21.060Z,34.73
2018-12-13T21:14:51.716Z,28.47
2018-12-13T21:17:22.365Z,23.17
2018-12-13T21:19:53.103Z,19.03
2018-12-13T21:22:24.619Z,17.47
2018-12-13T21:24:55.410Z,15.37
2018-12-13T21:27:26.210Z,17.87
2018-12-13T21:29:56.990Z,20.87
2018-12-13T21:32:27.825Z,26.57
2018-12-13T21:34:58.537Z,25.47
2018-12-13T21:37:29.162Z,18.53
2018-12-13T21:39:59.805Z,14.10
2018-12-13T21:42:30.699Z,18.53
2018-12-13T21:45:01.449Z,14.53
2018-12-13T21:47:37.079Z,22.00
2018-12-13T21:50:09.138Z,36.10
2018-12-13T21:52:40.985Z,26.43
2018-12-13T21:55:11.668Z,20.70
2018-12-13T21:57:42.831Z,19.17
2018-12-13T22:00:14.964Z,13.53
2018-12-13T22:02:45.605Z,13.43
2018-12-13T22:05:16.513Z,25.70
2018-12-13T22:07:47.207Z,11.03
2018-12-13T22:10:17.846Z,11.77
2018-12-13T22:12:48.588Z,12.67
2018-12-13T22:15:19.255Z,15.63
2018-12-13T22:17:49.989Z,14.17
2018-12-13T22:20:21.092Z,13.63
2018-12-13T22:22:52.782Z,9.97
2018-12-13T22:25:25.835Z,16.33
2018-12-13T22:27:56.586Z,11.63
2018-12-13T22:30:27.296Z,11.63
2018-12-13T22:32:58.031Z,15.40
2018-12-13T22:35:29.788Z,16.40
2018-12-13T22:38:00.463Z,21.87
2018-12-13T22:40:31.265Z,19.40
2018-12-13T22:43:01.937Z,22.70
2018-12-13T22:45:32.843Z,17.03
2018-12-13T22:48:04.625Z,15.70
2018-12-13T22:50:35.442Z,10.20
2018-12-13T22:53:06.142Z,10.40
2018-12-13T22:55:37.007Z,9.67
2018-12-13T22:58:08.009Z,10.97
2018-12-13T23:00:38.790Z,14.73
2018-12-13T23:03:11.545Z,13.63
2018-12-13T23:05:42.349Z,13.73
2018-12-13T23:08:13.030Z,11.13
2018-12-13T23:10:43.945Z,20.63
2018-12-13T23:13:14.860Z,26.40
2018-12-13T23:15:45.623Z,24.83
2018-12-13T23:18:16.270Z,23.33
2018-12-13T23:20:47.956Z,31.47
2018-12-13T23:23:18.628Z,41.43
2018-12-13T23:25:49.640Z,39.53
2018-12-13T23:28:20.353Z,26.20
2018-12-13T23:30:51.053Z,24.03
2018-12-13T23:33:21.725Z,15.83
2018-12-13T23:35:52.581Z,11.63
2018-12-13T23:38:23.403Z,11.50
2018-12-13T23:40:54.121Z,12.23
2018-12-13T23:43:24.841Z,12.80
2018-12-13T23:45:55.703Z,11.37
2018-12-13T23:48:26.382Z,11.50
2018-12-13T23:50:57.370Z,11.77
2018-12-13T23:53:28.545Z,16.27
2018-12-13T23:56:00.366Z,11.17
2018-12-13T23:58:31.263Z,14.10
